Aeroporto :







RITROVATECI SU...

 
LOGIN :

Iscrizione | Disclaimer

   EN    FR    IT 

 









Sommario :    VFR   VFR Marginale   IFR   IFR Intensivo   IFR Molto Intensivo
Visibilità : 
Base nubi : 
>= 8 km
>= 3000ft
5 / 8 km
1000 / 3000 ft
1500m / 5 km
500 / 1000 ft
800 / 1500m
200 / 500 ft
< 800m
< 200 ft
Simboli :   Temporali  Nebbia  Neve Forte  Precipitazioni Forti  Vento > 20 kt






- Altitudine del aeroporto : 266 ft
- Codice IATA : MHT


KMHT - Manchester

ULTIMO METAR :
  • 100553Z 18004KT 10SM CLR 26/22 A2999 RMK AO2 SLP163 T02610217 10306 20261 51004

METARs OBSOLETI :
  • 100453Z 17005KT 10SM FEW100 27/22 A2999 RMK AO2 SLP162 T02670222 403440217

TAF KMHT
Valido dal 10 a 06 ore il 11 a 06 ore UTC


100543Z 1006/1106 17004KT P6SM SCT250
TEMPO 1008/1011 3SM BR
FM101200 15005KT P6SM SCT050
FM101700 12008KT P6SM BKN040
FM102200 11008KT 5SM -SHRA BR OVC025
FM110200 10009KT 3SM SHRA BR OVC006
FIR KZBW / America del Nord



MetMap, La meteo Aeronautica in un colpo d'occhio ! - Copyright ORBIFLY Dicembre 2007 - Disclaimer

ORBIFLY MET'MAP TEAM :

Programmazione e sviluppo : Alexandra Zaïnal
Concezione : Baudouin d'Aumeries
Aiuto per la programmazione : Marc-Olivier Méhu
Supporto tecnico e logistico : Manuel Goepfert
Aiuto per la traduzione : Arnaldo La Scala

Contatto : metmap@orbifly.com




FONTI E CREDITI :

   NOAA